createdAt,value
2023-04-11T00:00:43.958Z,1004.84
2023-04-11T00:01:43.993Z,1004.89
2023-04-11T00:02:44.130Z,1004.92
2023-04-11T00:03:44.111Z,1004.93
2023-04-11T00:04:44.054Z,1004.92
2023-04-11T00:05:43.895Z,1004.92
2023-04-11T00:06:43.894Z,1004.91
2023-04-11T00:07:43.883Z,1004.92
2023-04-11T00:08:43.862Z,1004.95
2023-04-11T00:09:43.848Z,1004.96
2023-04-11T00:10:45.638Z,1004.99
2023-04-11T00:11:43.811Z,1004.99
2023-04-11T00:12:43.808Z,1005.00
2023-04-11T00:13:43.790Z,1004.96
2023-04-11T00:14:43.781Z,1005.02
2023-04-11T00:15:43.799Z,1005.00
2023-04-11T00:16:43.829Z,1004.98
2023-04-11T00:17:43.792Z,1004.96
2023-04-11T00:18:43.737Z,1005.00
2023-04-11T00:19:43.720Z,1005.05
2023-04-11T00:20:43.740Z,1005.05
2023-04-11T00:21:43.706Z,1005.01
2023-04-11T00:22:43.722Z,1004.99
2023-04-11T00:23:43.697Z,1004.95
2023-04-11T00:24:43.682Z,1004.94
2023-04-11T00:25:43.716Z,1004.91
2023-04-11T00:26:43.642Z,1004.84
2023-04-11T00:27:43.648Z,1004.70
2023-04-11T00:28:43.620Z,1004.61
2023-04-11T00:29:43.630Z,1004.57
2023-04-11T00:30:43.607Z,1004.57
2023-04-11T00:31:43.643Z,1004.59
2023-04-11T00:32:43.612Z,1004.61
2023-04-11T00:33:43.577Z,1004.67
2023-04-11T00:34:43.562Z,1004.69
2023-04-11T00:35:43.569Z,1004.71
2023-04-11T00:36:43.668Z,1004.73
2023-04-11T00:37:43.538Z,1004.75
2023-04-11T00:38:43.524Z,1004.78
2023-04-11T00:39:43.517Z,1004.78
2023-04-11T00:40:43.479Z,1004.74
2023-04-11T00:41:43.531Z,1004.79
2023-04-11T00:42:43.465Z,1004.80
2023-04-11T00:43:43.464Z,1004.77
2023-04-11T00:44:43.437Z,1004.79
2023-04-11T00:45:43.513Z,1004.91
2023-04-11T00:46:45.528Z,1004.89
2023-04-11T00:47:43.468Z,1004.89
2023-04-11T00:48:43.386Z,1004.90
2023-04-11T00:49:43.394Z,1004.88
2023-04-11T00:50:43.379Z,1004.87
2023-04-11T00:51:43.399Z,1004.84
2023-04-11T00:52:43.354Z,1004.85
2023-04-11T00:53:43.334Z,1004.75
2023-04-11T00:54:43.348Z,1004.69
2023-04-11T00:55:43.310Z,1004.68
2023-04-11T00:56:43.313Z,1004.64
2023-04-11T00:57:43.304Z,1004.63
2023-04-11T00:58:43.274Z,1004.61
2023-04-11T00:59:43.295Z,1004.57
2023-04-11T01:00:43.248Z,1004.60
2023-04-11T01:01:43.482Z,1004.60
2023-04-11T01:02:43.726Z,1004.62
2023-04-11T01:03:43.319Z,1004.68
2023-04-11T01:04:43.232Z,1004.66
2023-04-11T01:05:43.230Z,1004.56
2023-04-11T01:06:43.192Z,1004.51
2023-04-11T01:07:43.190Z,1004.49
2023-04-11T01:08:43.166Z,1004.56
2023-04-11T01:09:43.252Z,1004.56
2023-04-11T01:10:43.164Z,1004.52
2023-04-11T01:11:43.146Z,1004.51
2023-04-11T01:12:43.133Z,1004.46
2023-04-11T01:13:43.117Z,1004.46
2023-04-11T01:14:43.137Z,1004.47
2023-04-11T01:15:43.102Z,1004.57
2023-04-11T01:16:43.113Z,1004.47
2023-04-11T01:17:43.095Z,1004.41
2023-04-11T01:18:43.073Z,1004.47
2023-04-11T01:19:43.087Z,1004.41
2023-04-11T01:20:43.029Z,1004.38
2023-04-11T01:21:43.040Z,1004.34
2023-04-11T01:22:43.031Z,1004.37
2023-04-11T01:23:43.014Z,1004.30
2023-04-11T01:24:43.010Z,1004.32
2023-04-11T01:25:42.981Z,1004.30
2023-04-11T01:26:43.015Z,1004.32
2023-04-11T01:27:42.964Z,1004.36
2023-04-11T01:28:42.942Z,1004.40
2023-04-11T01:29:42.962Z,1004.43
2023-04-11T01:30:42.958Z,1004.49
2023-04-11T01:31:42.924Z,1004.55
2023-04-11T01:32:42.907Z,1004.58
2023-04-11T01:33:42.891Z,1004.60
2023-04-11T01:34:42.879Z,1004.60
2023-04-11T01:35:42.908Z,1004.58
2023-04-11T01:36:42.887Z,1004.56
2023-04-11T01:37:42.886Z,1004.61
2023-04-11T01:38:42.838Z,1004.58
2023-04-11T01:39:42.828Z,1004.58
2023-04-11T01:40:42.815Z,1004.53
2023-04-11T01:41:42.825Z,1004.51
2023-04-11T01:42:42.867Z,1004.50
2023-04-11T01:43:42.783Z,1004.50
2023-04-11T01:44:42.754Z,1004.47
2023-04-11T01:45:42.763Z,1004.47
2023-04-11T01:46:42.861Z,1004.44
2023-04-11T01:47:42.797Z,1004.43
2023-04-11T01:48:42.820Z,1004.47
2023-04-11T01:49:42.701Z,1004.45
2023-04-11T01:50:42.700Z,1004.46
2023-04-11T01:51:42.695Z,1004.42
2023-04-11T01:52:42.693Z,1004.49
2023-04-11T01:53:42.672Z,1004.52
2023-04-11T01:54:42.653Z,1004.53
2023-04-11T01:55:42.646Z,1004.52
2023-04-11T01:56:42.616Z,1004.48
2023-04-11T01:57:42.676Z,1004.58
2023-04-11T01:58:42.616Z,1004.59
2023-04-11T01:59:42.589Z,1004.58
2023-04-11T02:00:42.577Z,1004.53
2023-04-11T02:01:42.665Z,1004.56
2023-04-11T02:02:42.729Z,1004.53
2023-04-11T02:03:42.604Z,1004.59
2023-04-11T02:04:42.541Z,1004.57
2023-04-11T02:05:42.539Z,1004.62
2023-04-11T02:06:42.516Z,1004.60
2023-04-11T02:07:42.528Z,1004.65
2023-04-11T02:08:42.504Z,1004.62
2023-04-11T02:09:42.477Z,1004.61
2023-04-11T02:10:42.459Z,1004.54
2023-04-11T02:11:42.468Z,1004.59
2023-04-11T02:12:42.448Z,1004.62
2023-04-11T02:13:42.455Z,1004.69
2023-04-11T02:14:42.454Z,1004.68
2023-04-11T02:15:42.485Z,1004.79
2023-04-11T02:16:42.403Z,1004.77
2023-04-11T02:17:42.450Z,1004.77
2023-04-11T02:18:42.369Z,1004.81
2023-04-11T02:19:42.396Z,1004.79
2023-04-11T02:20:42.348Z,1004.79
2023-04-11T02:21:42.382Z,1004.81
2023-04-11T02:22:42.346Z,1004.78
2023-04-11T02:23:42.332Z,1004.77
2023-04-11T02:24:42.302Z,1004.72
2023-04-11T02:25:42.294Z,1004.75
2023-04-11T02:26:42.318Z,1004.76
2023-04-11T02:27:42.287Z,1004.73
2023-04-11T02:28:42.262Z,1004.77
2023-04-11T02:29:42.260Z,1004.76
2023-04-11T02:30:42.309Z,1004.78
2023-04-11T02:31:42.341Z,1004.85
2023-04-11T02:32:42.254Z,1004.80
2023-04-11T02:33:42.206Z,1004.93
2023-04-11T02:34:42.194Z,1004.92
2023-04-11T02:35:42.209Z,1004.92
2023-04-11T02:36:42.190Z,1004.90
2023-04-11T02:37:42.169Z,1004.85
2023-04-11T02:38:42.139Z,1004.90
2023-04-11T02:39:42.135Z,1004.90
2023-04-11T02:40:42.116Z,1004.88
2023-04-11T02:41:42.126Z,1004.94
2023-04-11T02:42:42.118Z,1004.91
2023-04-11T02:43:42.104Z,1004.95
2023-04-11T02:44:42.084Z,1004.93
2023-04-11T02:45:42.063Z,1004.94
2023-04-11T02:46:42.128Z,1004.94
2023-04-11T02:47:42.169Z,1004.93
2023-04-11T02:48:42.058Z,1005.04
2023-04-11T02:49:42.022Z,1005.04
2023-04-11T02:50:42.017Z,1005.03
2023-04-11T02:51:42.013Z,1005.10
2023-04-11T02:52:42.009Z,1005.11
2023-04-11T02:53:42.007Z,1005.13
2023-04-11T02:54:41.961Z,1005.17
2023-04-11T02:55:41.958Z,1005.17
2023-04-11T02:56:41.948Z,1005.19
2023-04-11T02:57:41.941Z,1005.20
2023-04-11T02:58:42.236Z,1005.14
2023-04-11T02:59:41.956Z,1005.19
2023-04-11T03:00:41.913Z,1005.10
2023-04-11T03:01:42.006Z,1005.22
2023-04-11T03:02:42.161Z,1005.15
2023-04-11T03:03:41.934Z,1005.19
2023-04-11T03:04:41.852Z,1005.22
2023-04-11T03:05:41.873Z,1005.24
2023-04-11T03:06:41.824Z,1005.27
2023-04-11T03:07:41.815Z,1005.24
2023-04-11T03:08:41.801Z,1005.28
2023-04-11T03:09:41.816Z,1005.25
2023-04-11T03:10:41.803Z,1005.29
2023-04-11T03:11:41.768Z,1005.21
2023-04-11T03:12:41.760Z,1005.23
2023-04-11T03:13:41.752Z,1005.27
2023-04-11T03:14:41.733Z,1005.28
2023-04-11T03:15:41.823Z,1005.29
2023-04-11T03:16:41.759Z,1005.26
2023-04-11T03:17:41.753Z,1005.28
2023-04-11T03:18:41.801Z,1005.27
2023-04-11T03:19:41.700Z,1005.20
2023-04-11T03:20:41.674Z,1005.32
2023-04-11T03:21:41.668Z,1005.27
2023-04-11T03:22:41.658Z,1005.25
2023-04-11T03:23:41.661Z,1005.27
2023-04-11T03:24:41.623Z,1005.30
2023-04-11T03:25:41.691Z,1005.23
2023-04-11T03:26:41.612Z,1005.27
2023-04-11T03:27:41.603Z,1005.24
2023-04-11T03:28:41.574Z,1005.22
2023-04-11T03:29:41.566Z,1005.26
2023-04-11T03:30:41.552Z,1005.30
2023-04-11T03:31:41.571Z,1005.28
2023-04-11T03:32:41.631Z,1005.24
2023-04-11T03:33:41.535Z,1005.36
2023-04-11T03:34:41.548Z,1005.28
2023-04-11T03:35:41.548Z,1005.27
2023-04-11T03:36:42.457Z,1005.30
2023-04-11T03:37:41.511Z,1005.30
2023-04-11T03:38:41.484Z,1005.35
2023-04-11T03:39:41.476Z,1005.31
2023-04-11T03:40:41.439Z,1005.33
2023-04-11T03:41:41.451Z,1005.31
2023-04-11T03:42:41.433Z,1005.31
2023-04-11T03:43:41.429Z,1005.31
2023-04-11T03:44:41.405Z,1005.37
2023-04-11T03:45:41.399Z,1005.36
2023-04-11T03:46:41.401Z,1005.38
2023-04-11T03:47:41.394Z,1005.37
2023-04-11T03:48:41.376Z,1005.48
2023-04-11T03:49:41.361Z,1005.45
2023-04-11T03:50:41.360Z,1005.44
2023-04-11T03:51:41.322Z,1005.44
2023-04-11T03:52:41.333Z,1005.47
2023-04-11T03:53:41.321Z,1005.48
2023-04-11T03:54:41.283Z,1005.50
2023-04-11T03:55:41.293Z,1005.50
2023-04-11T03:56:41.259Z,1005.55
2023-04-11T03:57:41.309Z,1005.55
2023-04-11T03:58:41.244Z,1005.56
2023-04-11T03:59:41.263Z,1005.59
2023-04-11T04:00:41.209Z,1005.60
2023-04-11T04:01:41.298Z,1005.58
2023-04-11T04:02:41.402Z,1005.60
2023-04-11T04:03:41.429Z,1005.61
2023-04-11T04:04:41.248Z,1005.62
2023-04-11T04:05:41.173Z,1005.61
2023-04-11T04:06:41.170Z,1005.62
2023-04-11T04:07:41.145Z,1005.63
2023-04-11T04:08:41.126Z,1005.64
2023-04-11T04:09:41.124Z,1005.61
2023-04-11T04:10:41.099Z,1005.66
2023-04-11T04:11:41.101Z,1005.63
2023-04-11T04:12:41.079Z,1005.64
2023-04-11T04:13:41.095Z,1005.66
2023-04-11T04:14:41.081Z,1005.71
2023-04-11T04:15:41.089Z,1005.63
2023-04-11T04:16:41.125Z,1005.67
2023-04-11T04:17:41.108Z,1005.63
2023-04-11T04:18:41.013Z,1005.59
2023-04-11T04:19:41.019Z,1005.57
2023-04-11T04:20:40.989Z,1005.63
2023-04-11T04:21:40.997Z,1005.63
2023-04-11T04:22:41.007Z,1005.61
2023-04-11T04:23:40.959Z,1005.57
2023-04-11T04:24:40.945Z,1005.60
2023-04-11T04:25:40.963Z,1005.59
2023-04-11T04:26:40.934Z,1005.60
2023-04-11T04:27:40.903Z,1005.57
2023-04-11T04:28:40.888Z,1005.64
2023-04-11T04:29:40.895Z,1005.66
2023-04-11T04:30:40.890Z,1005.63
2023-04-11T04:31:40.897Z,1005.60
2023-04-11T04:32:40.914Z,1005.62
2023-04-11T04:33:40.851Z,1005.65
2023-04-11T04:34:40.822Z,1005.66
2023-04-11T04:35:40.838Z,1005.64
2023-04-11T04:36:40.812Z,1005.70
2023-04-11T04:37:40.799Z,1005.68
2023-04-11T04:38:40.813Z,1005.68
2023-04-11T04:39:40.778Z,1005.75
2023-04-11T04:40:40.781Z,1005.72
2023-04-11T04:41:40.738Z,1005.71
2023-04-11T04:42:40.735Z,1005.74
2023-04-11T04:43:40.732Z,1005.69
2023-04-11T04:44:40.709Z,1005.74
2023-04-11T04:45:40.743Z,1005.71
2023-04-11T04:46:40.684Z,1005.74
2023-04-11T04:47:40.685Z,1005.71
2023-04-11T04:48:40.675Z,1005.74
2023-04-11T04:49:40.650Z,1005.76
2023-04-11T04:50:40.662Z,1005.78
2023-04-11T04:51:40.662Z,1005.76
2023-04-11T04:52:40.630Z,1005.73
2023-04-11T04:53:40.609Z,1005.75
2023-04-11T04:54:40.652Z,1005.70
2023-04-11T04:55:40.595Z,1005.78
2023-04-11T04:56:40.589Z,1005.85
2023-04-11T04:57:40.590Z,1005.84
2023-04-11T04:58:40.567Z,1005.84
2023-04-11T04:59:40.547Z,1005.83
2023-04-11T05:00:40.540Z,1005.85
2023-04-11T05:01:40.606Z,1005.88
2023-04-11T05:02:40.711Z,1005.86
2023-04-11T05:03:40.547Z,1005.90
2023-04-11T05:04:40.494Z,1005.76
2023-04-11T05:05:40.490Z,1005.91
2023-04-11T05:06:40.461Z,1005.84
2023-04-11T05:07:40.483Z,1005.86
2023-04-11T05:08:40.450Z,1005.87
2023-04-11T05:09:40.437Z,1005.87
2023-04-11T05:10:40.434Z,1005.85
2023-04-11T05:11:40.408Z,1005.90
2023-04-11T05:12:40.407Z,1005.92
2023-04-11T05:13:40.404Z,1005.98
2023-04-11T05:14:40.371Z,1005.94
2023-04-11T05:15:40.363Z,1005.98
2023-04-11T05:16:40.404Z,1006.00
2023-04-11T05:17:40.379Z,1005.98
2023-04-11T05:18:40.352Z,1006.00
2023-04-11T05:19:40.305Z,1005.99
2023-04-11T05:20:40.322Z,1005.97
2023-04-11T05:21:40.315Z,1005.98
2023-04-11T05:22:40.289Z,1006.06
2023-04-11T05:23:40.268Z,1006.07
2023-04-11T05:24:40.296Z,1006.10
2023-04-11T05:25:40.243Z,1006.07
2023-04-11T05:26:40.307Z,1006.06
2023-04-11T05:27:40.226Z,1006.10
2023-04-11T05:28:40.204Z,1006.09
2023-04-11T05:29:40.200Z,1006.06
2023-04-11T05:30:40.203Z,1006.12
2023-04-11T05:31:40.190Z,1006.09
2023-04-11T05:32:40.242Z,1006.16
2023-04-11T05:33:40.157Z,1006.15
2023-04-11T05:34:40.150Z,1006.15
2023-04-11T05:35:40.183Z,1006.18
2023-04-11T05:36:40.163Z,1006.17
2023-04-11T05:37:40.101Z,1006.19
2023-04-11T05:38:40.107Z,1006.16
2023-04-11T05:39:40.095Z,1006.21
2023-04-11T05:40:40.102Z,1006.22
2023-04-11T05:41:40.073Z,1006.23
2023-04-11T05:42:40.076Z,1006.26
2023-04-11T05:43:40.042Z,1006.28
2023-04-11T05:44:40.047Z,1006.34
2023-04-11T05:45:40.015Z,1006.37
2023-04-11T05:46:40.156Z,1006.31
2023-04-11T05:47:40.059Z,1006.35
2023-04-11T05:48:39.982Z,1006.35
2023-04-11T05:49:39.969Z,1006.41
2023-04-11T05:50:39.962Z,1006.39
2023-04-11T05:51:39.949Z,1006.42
2023-04-11T05:52:39.969Z,1006.49
2023-04-11T05:53:39.936Z,1006.48
2023-04-11T05:54:39.933Z,1006.43
2023-04-11T05:55:39.901Z,1006.45
2023-04-11T05:56:39.925Z,1006.50
2023-04-11T05:57:39.913Z,1006.43
2023-04-11T05:58:39.905Z,1006.43
2023-04-11T05:59:39.852Z,1006.45
2023-04-11T06:00:39.850Z,1006.45
2023-04-11T06:01:40.012Z,1006.52
2023-04-11T06:02:40.145Z,1006.51
2023-04-11T06:03:39.931Z,1006.48
2023-04-11T06:04:39.990Z,1006.48
2023-04-11T06:05:39.794Z,1006.59
2023-04-11T06:06:39.776Z,1006.54
2023-04-11T06:07:39.809Z,1006.55
2023-04-11T06:08:39.763Z,1006.59
2023-04-11T06:09:39.740Z,1006.66
2023-04-11T06:10:39.725Z,1006.67
2023-04-11T06:11:39.713Z,1006.63
2023-04-11T06:12:39.733Z,1006.62
2023-04-11T06:13:39.714Z,1006.66
2023-04-11T06:14:40.591Z,1006.61
2023-04-11T06:15:39.696Z,1006.62
2023-04-11T06:16:39.674Z,1006.63
2023-04-11T06:17:39.695Z,1006.64
2023-04-11T06:18:39.659Z,1006.62
2023-04-11T06:19:39.637Z,1006.64
2023-04-11T06:20:39.636Z,1006.66
2023-04-11T06:21:39.599Z,1006.65
2023-04-11T06:22:39.616Z,1006.69
2023-04-11T06:23:39.579Z,1006.64
2023-04-11T06:24:39.584Z,1006.76
2023-04-11T06:25:39.595Z,1006.71
2023-04-11T06:26:39.546Z,1006.74
2023-04-11T06:27:39.592Z,1006.70
2023-04-11T06:28:39.524Z,1006.70
2023-04-11T06:29:39.508Z,1006.74
2023-04-11T06:30:39.535Z,1006.71
2023-04-11T06:31:39.567Z,1006.76
2023-04-11T06:32:39.569Z,1006.78
2023-04-11T06:33:39.486Z,1006.74
2023-04-11T06:34:39.479Z,1006.85
2023-04-11T06:35:39.460Z,1006.80
2023-04-11T06:36:39.436Z,1006.86
2023-04-11T06:37:39.416Z,1006.84
2023-04-11T06:38:39.452Z,1006.80
2023-04-11T06:39:39.406Z,1006.87
2023-04-11T06:40:39.385Z,1006.92
2023-04-11T06:41:39.381Z,1006.83
2023-04-11T06:42:39.372Z,1006.87
2023-04-11T06:43:39.346Z,1006.94
2023-04-11T06:44:39.405Z,1006.96
2023-04-11T06:45:39.324Z,1006.93
2023-04-11T06:46:39.500Z,1006.96
2023-04-11T06:47:39.365Z,1006.89
2023-04-11T06:48:39.302Z,1006.92
2023-04-11T06:49:39.283Z,1006.90
2023-04-11T06:50:39.309Z,1007.05
2023-04-11T06:51:39.268Z,1007.01
2023-04-11T06:52:39.253Z,1006.91
2023-04-11T06:53:39.251Z,1006.99
2023-04-11T06:54:39.249Z,1007.04
2023-04-11T06:55:39.226Z,1007.03
2023-04-11T06:56:39.205Z,1007.03
2023-04-11T06:57:39.202Z,1007.06
2023-04-11T06:58:39.198Z,1007.06
2023-04-11T06:59:39.184Z,1007.12
2023-04-11T07:00:39.176Z,1007.02
2023-04-11T07:01:39.289Z,1007.13
2023-04-11T07:02:39.510Z,1007.08
2023-04-11T07:03:39.298Z,1007.13
2023-04-11T07:04:39.253Z,1007.09
2023-04-11T07:05:39.609Z,1007.16
2023-04-11T07:06:39.109Z,1007.19
2023-04-11T07:07:39.152Z,1007.17
2023-04-11T07:08:39.094Z,1007.14
2023-04-11T07:09:39.056Z,1007.20
2023-04-11T07:10:39.077Z,1007.12
2023-04-11T07:11:39.075Z,1007.21
2023-04-11T07:12:39.040Z,1007.18
2023-04-11T07:13:39.041Z,1007.17
2023-04-11T07:14:39.002Z,1007.15
2023-04-11T07:15:39.007Z,1007.16
2023-04-11T07:16:39.148Z,1007.21
2023-04-11T07:17:39.028Z,1007.29
2023-04-11T07:18:39.109Z,1007.24
2023-04-11T07:19:38.941Z,1007.27
2023-04-11T07:20:38.932Z,1007.30
2023-04-11T07:21:38.921Z,1007.26
2023-04-11T07:22:38.929Z,1007.34
2023-04-11T07:23:38.930Z,1007.30
2023-04-11T07:24:38.894Z,1007.31
2023-04-11T07:25:38.871Z,1007.33
2023-04-11T07:26:39.054Z,1007.31
2023-04-11T07:27:38.872Z,1007.37
2023-04-11T07:28:38.864Z,1007.36
2023-04-11T07:29:38.825Z,1007.41
2023-04-11T07:30:38.823Z,1007.47
2023-04-11T07:31:38.821Z,1007.41
2023-04-11T07:32:38.870Z,1007.38
2023-04-11T07:33:38.811Z,1007.40
2023-04-11T07:34:38.835Z,1007.37
2023-04-11T07:35:38.832Z,1007.42
2023-04-11T07:36:38.752Z,1007.40
2023-04-11T07:37:38.736Z,1007.35
2023-04-11T07:38:38.753Z,1007.43
2023-04-11T07:39:38.714Z,1007.40
2023-04-11T07:40:38.720Z,1007.49
2023-04-11T07:41:38.688Z,1007.48
2023-04-11T07:42:38.697Z,1007.45
2023-04-11T07:43:38.884Z,1007.44
2023-04-11T07:44:38.675Z,1007.47
2023-04-11T07:45:38.716Z,1007.46
2023-04-11T07:46:38.660Z,1007.48
2023-04-11T07:47:38.637Z,1007.47
2023-04-11T07:48:38.668Z,1007.52
2023-04-11T07:49:38.597Z,1007.49
2023-04-11T07:50:38.707Z,1007.51
2023-04-11T07:51:38.592Z,1007.54
2023-04-11T07:52:38.580Z,1007.48
2023-04-11T07:53:38.580Z,1007.45
2023-04-11T07:54:38.549Z,1007.42
2023-04-11T07:55:38.556Z,1007.51
2023-04-11T07:56:38.536Z,1007.45
2023-04-11T07:57:38.517Z,1007.44
2023-04-11T07:58:38.497Z,1007.53
2023-04-11T07:59:38.480Z,1007.53
2023-04-11T08:00:38.504Z,1007.44
2023-04-11T08:01:38.525Z,1007.52
2023-04-11T08:02:38.598Z,1007.59
2023-04-11T08:03:38.647Z,1007.62
2023-04-11T08:04:38.500Z,1007.61
2023-04-11T08:05:38.449Z,1007.59
2023-04-11T08:06:38.516Z,1007.58
2023-04-11T08:07:38.402Z,1007.66
2023-04-11T08:08:38.381Z,1007.65
2023-04-11T08:09:38.376Z,1007.59
2023-04-11T08:10:38.383Z,1007.68
2023-04-11T08:11:38.346Z,1007.79
2023-04-11T08:12:38.336Z,1007.61
2023-04-11T08:13:38.341Z,1007.66
2023-04-11T08:14:38.321Z,1007.71
2023-04-11T08:15:38.298Z,1007.71
2023-04-11T08:16:38.422Z,1007.71
2023-04-11T08:17:38.539Z,1007.71
2023-04-11T08:18:38.327Z,1007.69
2023-04-11T08:19:38.271Z,1007.76
2023-04-11T08:20:38.265Z,1007.65
2023-04-11T08:21:38.240Z,1007.75
2023-04-11T08:22:38.291Z,1007.81
2023-04-11T08:23:38.243Z,1007.85
2023-04-11T08:24:38.201Z,1007.84
2023-04-11T08:25:38.232Z,1007.83
2023-04-11T08:26:38.195Z,1007.83
2023-04-11T08:27:38.181Z,1007.85
2023-04-11T08:28:39.190Z,1007.87
2023-04-11T08:29:38.163Z,1007.80
2023-04-11T08:30:38.202Z,1007.78
2023-04-11T08:31:38.138Z,1007.89
2023-04-11T08:32:38.131Z,1007.84
2023-04-11T08:33:38.127Z,1007.92
2023-04-11T08:34:38.103Z,1007.83
2023-04-11T08:35:38.128Z,1007.90
2023-04-11T08:36:38.080Z,1007.90
2023-04-11T08:37:38.060Z,1008.02
2023-04-11T08:38:38.513Z,1007.83
2023-04-11T08:39:38.040Z,1007.92
2023-04-11T08:40:38.036Z,1007.92
2023-04-11T08:41:38.023Z,1007.98
2023-04-11T08:42:38.018Z,1007.97
2023-04-11T08:43:37.992Z,1008.04
2023-04-11T08:44:38.004Z,1008.00
2023-04-11T08:45:37.960Z,1007.99
2023-04-11T08:46:37.990Z,1007.99
2023-04-11T08:47:37.973Z,1007.99
2023-04-11T08:48:37.943Z,1007.96
2023-04-11T08:49:37.943Z,1007.99
2023-04-11T08:50:37.907Z,1008.07
2023-04-11T08:51:37.889Z,1008.05
2023-04-11T08:52:37.876Z,1008.00
2023-04-11T08:53:37.899Z,1008.11
2023-04-11T08:54:37.891Z,1008.07
2023-04-11T08:55:37.860Z,1008.04
2023-04-11T08:56:37.882Z,1008.10
2023-04-11T08:57:37.825Z,1008.00
2023-04-11T08:58:37.843Z,1008.08
2023-04-11T08:59:37.800Z,1008.07
2023-04-11T09:00:37.785Z,1007.97
2023-04-11T09:01:37.899Z,1007.97
2023-04-11T09:02:37.820Z,1007.93
2023-04-11T09:03:37.819Z,1007.89
2023-04-11T09:04:37.784Z,1008.07
2023-04-11T09:05:37.748Z,1008.07
2023-04-11T09:06:37.717Z,1008.00
2023-04-11T09:07:37.714Z,1008.03
2023-04-11T09:08:37.708Z,1007.95
2023-04-11T09:09:37.744Z,1007.90
2023-04-11T09:10:37.698Z,1008.02
2023-04-11T09:11:37.679Z,1007.91
2023-04-11T09:12:37.684Z,1007.91
2023-04-11T09:13:37.642Z,1007.91
2023-04-11T09:14:37.736Z,1008.02
2023-04-11T09:15:37.645Z,1008.03
2023-04-11T09:16:37.607Z,1007.99
2023-04-11T09:17:37.654Z,1007.91
2023-04-11T09:18:37.607Z,1007.93
2023-04-11T09:19:37.633Z,1007.98
2023-04-11T09:20:37.575Z,1007.97
2023-04-11T09:21:37.566Z,1008.09
2023-04-11T09:22:37.556Z,1007.91
2023-04-11T09:23:37.535Z,1007.97
2023-04-11T09:24:37.560Z,1007.95
2023-04-11T09:25:37.512Z,1008.00
2023-04-11T09:26:37.517Z,1007.94
2023-04-11T09:27:37.496Z,1007.92
2023-04-11T09:28:37.477Z,1007.99
2023-04-11T09:29:37.496Z,1008.00
2023-04-11T09:30:37.457Z,1007.98
2023-04-11T09:31:37.482Z,1007.98
2023-04-11T09:32:37.471Z,1007.94
2023-04-11T09:33:37.442Z,1007.95
2023-04-11T09:34:37.430Z,1007.89
2023-04-11T09:35:37.427Z,1007.90
2023-04-11T09:36:37.394Z,1008.00
2023-04-11T09:37:37.389Z,1007.99
2023-04-11T09:38:37.376Z,1008.00
2023-04-11T09:39:37.372Z,1007.96
2023-04-11T09:40:37.335Z,1007.91
2023-04-11T09:41:37.331Z,1007.89
2023-04-11T09:42:37.363Z,1007.77
2023-04-11T09:43:37.319Z,1007.93
2023-04-11T09:44:37.334Z,1007.88
2023-04-11T09:45:47.769Z,1007.90
2023-04-11T09:46:38.326Z,1007.97
2023-04-11T09:47:37.332Z,1008.00
2023-04-11T09:48:46.578Z,1007.87
2023-04-11T09:49:38.315Z,1007.96
2023-04-11T09:50:37.249Z,1007.94
2023-04-11T09:51:37.441Z,1007.92
2023-04-11T09:52:37.220Z,1007.92
2023-04-11T09:53:37.190Z,1008.04
2023-04-11T09:54:37.225Z,1008.03
2023-04-11T09:55:37.181Z,1007.95
2023-04-11T09:56:37.170Z,1008.07
2023-04-11T09:57:37.147Z,1008.05
2023-04-11T09:58:37.153Z,1008.00
2023-04-11T09:59:37.144Z,1007.96
2023-04-11T10:00:37.120Z,1008.01
2023-04-11T10:01:37.217Z,1007.94
2023-04-11T10:02:37.248Z,1007.96
2023-04-11T10:03:37.150Z,1007.96
2023-04-11T10:04:37.126Z,1007.99
2023-04-11T10:05:37.069Z,1007.99
2023-04-11T10:06:37.040Z,1008.14
2023-04-11T10:07:37.072Z,1008.02
2023-04-11T10:08:37.032Z,1008.07
2023-04-11T10:09:37.062Z,1008.14
2023-04-11T10:10:37.017Z,1008.09
2023-04-11T10:11:37.020Z,1008.18
2023-04-11T10:12:36.985Z,1008.17
2023-04-11T10:13:36.994Z,1008.13
2023-04-11T10:14:36.989Z,1008.16
2023-04-11T10:15:36.987Z,1008.16
2023-04-11T10:16:36.953Z,1008.20
2023-04-11T10:17:36.981Z,1008.22
2023-04-11T10:18:36.906Z,1008.17
2023-04-11T10:19:36.914Z,1008.13
2023-04-11T10:20:36.881Z,1008.11
2023-04-11T10:21:36.895Z,1008.10
2023-04-11T10:22:36.873Z,1007.99
2023-04-11T10:23:36.868Z,1008.11
2023-04-11T10:24:36.876Z,1008.09
2023-04-11T10:25:36.846Z,1008.11
2023-04-11T10:26:36.836Z,1008.28
2023-04-11T10:27:36.822Z,1008.22
2023-04-11T10:28:36.807Z,1008.27
2023-04-11T10:29:36.815Z,1008.14
2023-04-11T10:30:36.797Z,1008.26
2023-04-11T10:31:36.824Z,1008.24
2023-04-11T10:32:36.793Z,1008.18
2023-04-11T10:33:36.739Z,1007.99
2023-04-11T10:34:36.729Z,1008.25
2023-04-11T10:35:36.734Z,1008.25
2023-04-11T10:36:36.701Z,1008.18
2023-04-11T10:37:36.737Z,1008.23
2023-04-11T10:38:36.706Z,1008.23
2023-04-11T10:39:36.678Z,1007.99
2023-04-11T10:40:36.672Z,1008.17
2023-04-11T10:41:36.665Z,1007.95
2023-04-11T10:42:36.666Z,1008.11
2023-04-11T10:43:39.098Z,1008.15
2023-04-11T10:44:36.644Z,1007.95
2023-04-11T10:45:36.606Z,1008.08
2023-04-11T10:46:37.224Z,1007.96
2023-04-11T10:47:36.637Z,1008.01
2023-04-11T10:48:36.691Z,1008.32
2023-04-11T10:49:36.660Z,1008.24
2023-04-11T10:50:36.561Z,1008.13
2023-04-11T10:51:36.583Z,1008.14
2023-04-11T10:52:36.535Z,1008.00
2023-04-11T10:53:36.569Z,1008.12
2023-04-11T10:54:36.515Z,1008.16
2023-04-11T10:55:36.496Z,1008.19
2023-04-11T10:56:36.499Z,1008.15
2023-04-11T10:57:36.483Z,1008.06
2023-04-11T10:58:36.458Z,1008.06
2023-04-11T10:59:36.490Z,1008.13
2023-04-11T11:00:36.445Z,1008.08
2023-04-11T11:01:42.992Z,1008.15
2023-04-11T11:02:37.547Z,1008.09
2023-04-11T11:03:36.587Z,1008.15
2023-04-11T11:04:36.596Z,1008.19
2023-04-11T11:05:36.384Z,1008.15
2023-04-11T11:06:46.158Z,1008.09
2023-04-11T11:07:37.359Z,1008.07
2023-04-11T11:08:36.368Z,1008.04
2023-04-11T11:09:36.395Z,1008.05
2023-04-11T11:10:36.342Z,1008.08
2023-04-11T11:11:36.322Z,1008.15
2023-04-11T11:12:36.313Z,1008.16
2023-04-11T11:13:36.307Z,1008.12
2023-04-11T11:14:36.318Z,1008.23
2023-04-11T11:15:36.270Z,1008.18
2023-04-11T11:16:36.309Z,1008.24
2023-04-11T11:17:36.263Z,1008.20
2023-04-11T11:18:36.309Z,1008.22
2023-04-11T11:19:36.228Z,1008.23
2023-04-11T11:20:36.261Z,1008.23
2023-04-11T11:21:36.215Z,1008.24
2023-04-11T11:22:36.186Z,1008.37
2023-04-11T11:23:36.474Z,1008.36
2023-04-11T11:24:36.190Z,1008.25
2023-04-11T11:25:36.203Z,1008.35
2023-04-11T11:26:36.142Z,1008.28
2023-04-11T11:27:36.137Z,1008.25
2023-04-11T11:28:36.140Z,1008.26
2023-04-11T11:29:36.125Z,1008.30
2023-04-11T11:30:36.105Z,1008.23
2023-04-11T11:31:36.147Z,1008.20
2023-04-11T11:32:36.113Z,1008.27
2023-04-11T11:33:36.071Z,1008.24
2023-04-11T11:34:36.099Z,1008.20
2023-04-11T11:35:36.063Z,1008.28
2023-04-11T11:36:36.039Z,1008.29
2023-04-11T11:37:36.025Z,1008.33
2023-04-11T11:38:36.010Z,1008.40
2023-04-11T11:39:36.012Z,1008.39
2023-04-11T11:40:35.993Z,1008.25
2023-04-11T11:41:35.992Z,1008.19
2023-04-11T11:42:35.960Z,1008.34
2023-04-11T11:43:35.962Z,1008.31
2023-04-11T11:44:35.966Z,1008.35
2023-04-11T11:45:35.991Z,1008.35
2023-04-11T11:46:35.965Z,1008.27
2023-04-11T11:47:35.991Z,1008.26
2023-04-11T11:48:35.910Z,1008.36
2023-04-11T11:49:35.931Z,1008.33
2023-04-11T11:50:35.936Z,1008.37
2023-04-11T11:51:35.878Z,1008.23
2023-04-11T11:52:35.874Z,1008.27
2023-04-11T11:53:35.873Z,1008.28
2023-04-11T11:54:35.845Z,1008.30
2023-04-11T11:55:35.832Z,1008.33
2023-04-11T11:56:35.806Z,1008.30
2023-04-11T11:57:35.819Z,1008.28
2023-04-11T11:58:35.782Z,1008.25
2023-04-11T11:59:35.789Z,1008.32
2023-04-11T12:00:35.761Z,1008.28
2023-04-11T12:01:35.769Z,1008.20
2023-04-11T12:02:35.946Z,1008.30
2023-04-11T12:03:35.893Z,1008.32
2023-04-11T12:04:35.886Z,1008.30
2023-04-11T12:05:35.789Z,1008.28